sensor_id;sensor_type;location;lat;lon;timestamp;temperature;humidity
28532;DHT22;15738;44.860;10.066;2023-03-21T00:02:21;10.20;99.90
28532;DHT22;15738;44.860;10.066;2023-03-21T00:05:08;10.20;99.90
28532;DHT22;15738;44.860;10.066;2023-03-21T00:08:00;10.20;99.90
28532;DHT22;15738;44.860;10.066;2023-03-21T00:10:47;10.20;99.90
28532;DHT22;15738;44.860;10.066;2023-03-21T00:13:33;10.10;99.90
28532;DHT22;15738;44.860;10.066;2023-03-21T00:16:22;10.10;99.90
28532;DHT22;15738;44.860;10.066;2023-03-21T00:19:16;10.10;99.90
28532;DHT22;15738;44.860;10.066;2023-03-21T00:22:03;10.00;99.90
28532;DHT22;15738;44.860;10.066;2023-03-21T00:24:53;10.00;99.90
28532;DHT22;15738;44.860;10.066;2023-03-21T00:27:38;9.90;99.90
28532;DHT22;15738;44.860;10.066;2023-03-21T00:30:44;9.90;99.90
28532;DHT22;15738;44.860;10.066;2023-03-21T00:33:30;9.90;99.90
28532;DHT22;15738;44.860;10.066;2023-03-21T00:36:15;9.90;99.90
28532;DHT22;15738;44.860;10.066;2023-03-21T00:39:01;9.90;99.90
28532;DHT22;15738;44.860;10.066;2023-03-21T00:41:47;9.90;99.90
28532;DHT22;15738;44.860;10.066;2023-03-21T00:44:35;9.90;99.90
28532;DHT22;15738;44.860;10.066;2023-03-21T00:47:21;9.90;99.90
28532;DHT22;15738;44.860;10.066;2023-03-21T00:50:10;9.90;99.90
28532;DHT22;15738;44.860;10.066;2023-03-21T00:52:56;9.90;99.90
28532;DHT22;15738;44.860;10.066;2023-03-21T00:55:42;9.90;99.90
28532;DHT22;15738;44.860;10.066;2023-03-21T00:58:28;9.90;99.90
28532;DHT22;15738;44.860;10.066;2023-03-21T01:01:14;9.90;99.90
28532;DHT22;15738;44.860;10.066;2023-03-21T01:04:00;9.90;99.90
28532;DHT22;15738;44.860;10.066;2023-03-21T01:06:52;9.90;99.90
28532;DHT22;15738;44.860;10.066;2023-03-21T01:09:38;9.80;99.90
28532;DHT22;15738;44.860;10.066;2023-03-21T01:12:23;9.80;99.90
28532;DHT22;15738;44.860;10.066;2023-03-21T01:15:09;9.80;99.90
28532;DHT22;15738;44.860;10.066;2023-03-21T01:17:55;9.80;99.90
28532;DHT22;15738;44.860;10.066;2023-03-21T01:20:42;9.80;99.90
28532;DHT22;15738;44.860;10.066;2023-03-21T01:23:28;9.70;99.90
28532;DHT22;15738;44.860;10.066;2023-03-21T01:26:14;9.70;99.90
28532;DHT22;15738;44.860;10.066;2023-03-21T01:29:02;9.70;99.90
28532;DHT22;15738;44.860;10.066;2023-03-21T01:31:48;9.70;99.90
28532;DHT22;15738;44.860;10.066;2023-03-21T01:34:34;9.70;99.90
28532;DHT22;15738;44.860;10.066;2023-03-21T01:37:20;9.60;99.90
28532;DHT22;15738;44.860;10.066;2023-03-21T01:40:09;9.70;99.90
28532;DHT22;15738;44.860;10.066;2023-03-21T01:42:58;9.70;99.90
28532;DHT22;15738;44.860;10.066;2023-03-21T01:51:59;9.60;99.90
28532;DHT22;15738;44.860;10.066;2023-03-21T01:54:57;9.60;99.90
28532;DHT22;15738;44.860;10.066;2023-03-21T01:57:47;9.60;99.90
28532;DHT22;15738;44.860;10.066;2023-03-21T02:00:54;9.60;99.90
28532;DHT22;15738;44.860;10.066;2023-03-21T02:03:50;9.50;99.90
28532;DHT22;15738;44.860;10.066;2023-03-21T02:06:49;9.50;99.90
28532;DHT22;15738;44.860;10.066;2023-03-21T02:09:46;9.50;99.90
28532;DHT22;15738;44.860;10.066;2023-03-21T02:12:36;9.50;99.90
28532;DHT22;15738;44.860;10.066;2023-03-21T02:15:24;9.50;99.90
28532;DHT22;15738;44.860;10.066;2023-03-21T02:18:25;9.40;99.90
28532;DHT22;15738;44.860;10.066;2023-03-21T02:27:25;9.40;99.90
28532;DHT22;15738;44.860;10.066;2023-03-21T02:30:22;8.90;99.90
28532;DHT22;15738;44.860;10.066;2023-03-21T02:39:20;9.00;99.90
28532;DHT22;15738;44.860;10.066;2023-03-21T02:45:08;8.80;99.90
28532;DHT22;15738;44.860;10.066;2023-03-21T02:48:02;8.80;99.90
28532;DHT22;15738;44.860;10.066;2023-03-21T02:50:53;8.70;99.90
28532;DHT22;15738;44.860;10.066;2023-03-21T02:53:39;8.60;99.90
28532;DHT22;15738;44.860;10.066;2023-03-21T02:56:27;8.60;99.90
28532;DHT22;15738;44.860;10.066;2023-03-21T02:59:15;8.60;99.90
28532;DHT22;15738;44.860;10.066;2023-03-21T03:02:02;8.60;99.90
28532;DHT22;15738;44.860;10.066;2023-03-21T03:04:47;8.70;99.90
28532;DHT22;15738;44.860;10.066;2023-03-21T03:07:57;8.60;99.90
28532;DHT22;15738;44.860;10.066;2023-03-21T03:13:49;8.70;99.90
28532;DHT22;15738;44.860;10.066;2023-03-21T03:16:39;8.60;99.90
28532;DHT22;15738;44.860;10.066;2023-03-21T03:19:30;8.60;99.90
28532;DHT22;15738;44.860;10.066;2023-03-21T03:22:37;8.60;99.90
28532;DHT22;15738;44.860;10.066;2023-03-21T03:25:27;8.60;99.90
28532;DHT22;15738;44.860;10.066;2023-03-21T03:28:29;8.60;99.90
28532;DHT22;15738;44.860;10.066;2023-03-21T03:31:18;8.60;99.90
28532;DHT22;15738;44.860;10.066;2023-03-21T03:34:11;8.60;99.90
28532;DHT22;15738;44.860;10.066;2023-03-21T03:37:01;8.50;99.90
28532;DHT22;15738;44.860;10.066;2023-03-21T03:42:41;8.50;99.90
28532;DHT22;15738;44.860;10.066;2023-03-21T03:45:52;8.50;99.90
28532;DHT22;15738;44.860;10.066;2023-03-21T03:48:47;8.50;99.90
28532;DHT22;15738;44.860;10.066;2023-03-21T03:51:36;8.40;99.90
28532;DHT22;15738;44.860;10.066;2023-03-21T03:54:34;8.40;99.90
28532;DHT22;15738;44.860;10.066;2023-03-21T03:57:21;8.40;99.90
28532;DHT22;15738;44.860;10.066;2023-03-21T04:00:09;8.40;99.90
28532;DHT22;15738;44.860;10.066;2023-03-21T04:03:05;8.40;99.90
28532;DHT22;15738;44.860;10.066;2023-03-21T04:05:54;8.30;99.90
28532;DHT22;15738;44.860;10.066;2023-03-21T04:08:40;8.30;99.90
28532;DHT22;15738;44.860;10.066;2023-03-21T04:11:26;8.20;99.90
28532;DHT22;15738;44.860;10.066;2023-03-21T04:14:13;8.20;99.90
28532;DHT22;15738;44.860;10.066;2023-03-21T04:16:59;8.20;99.90
28532;DHT22;15738;44.860;10.066;2023-03-21T04:19:45;8.30;99.90
28532;DHT22;15738;44.860;10.066;2023-03-21T04:22:31;8.30;99.90
28532;DHT22;15738;44.860;10.066;2023-03-21T04:25:17;8.20;99.90
28532;DHT22;15738;44.860;10.066;2023-03-21T04:28:18;8.20;99.90
28532;DHT22;15738;44.860;10.066;2023-03-21T04:31:17;8.30;99.90
28532;DHT22;15738;44.860;10.066;2023-03-21T04:34:17;8.30;99.90
28532;DHT22;15738;44.860;10.066;2023-03-21T04:37:09;8.20;99.90
28532;DHT22;15738;44.860;10.066;2023-03-21T04:39:58;8.30;99.90
28532;DHT22;15738;44.860;10.066;2023-03-21T04:42:44;8.30;99.90
28532;DHT22;15738;44.860;10.066;2023-03-21T04:45:30;8.30;99.90
28532;DHT22;15738;44.860;10.066;2023-03-21T04:48:17;8.40;99.90
28532;DHT22;15738;44.860;10.066;2023-03-21T04:51:04;8.40;99.90
28532;DHT22;15738;44.860;10.066;2023-03-21T04:53:49;8.40;99.90
28532;DHT22;15738;44.860;10.066;2023-03-21T04:56:37;8.40;99.90
28532;DHT22;15738;44.860;10.066;2023-03-21T04:59:22;8.40;99.90
28532;DHT22;15738;44.860;10.066;2023-03-21T05:02:09;8.40;99.90
28532;DHT22;15738;44.860;10.066;2023-03-21T05:04:55;8.40;99.90
28532;DHT22;15738;44.860;10.066;2023-03-21T05:07:41;8.40;99.90
28532;DHT22;15738;44.860;10.066;2023-03-21T05:10:27;8.40;99.90
28532;DHT22;15738;44.860;10.066;2023-03-21T05:13:13;8.40;99.90
28532;DHT22;15738;44.860;10.066;2023-03-21T05:15:59;8.40;99.90
28532;DHT22;15738;44.860;10.066;2023-03-21T05:18:45;8.40;99.90
28532;DHT22;15738;44.860;10.066;2023-03-21T05:21:37;8.40;99.90
28532;DHT22;15738;44.860;10.066;2023-03-21T05:24:33;8.40;99.90
28532;DHT22;15738;44.860;10.066;2023-03-21T05:27:23;8.40;99.90
28532;DHT22;15738;44.860;10.066;2023-03-21T05:30:27;8.40;99.90
28532;DHT22;15738;44.860;10.066;2023-03-21T05:33:16;8.40;99.90
28532;DHT22;15738;44.860;10.066;2023-03-21T05:36:02;8.40;99.90
28532;DHT22;15738;44.860;10.066;2023-03-21T05:38:50;8.40;99.90
28532;DHT22;15738;44.860;10.066;2023-03-21T05:41:35;8.40;99.90
28532;DHT22;15738;44.860;10.066;2023-03-21T05:44:22;8.40;99.90
28532;DHT22;15738;44.860;10.066;2023-03-21T05:47:08;8.40;99.90
28532;DHT22;15738;44.860;10.066;2023-03-21T05:49:59;8.50;99.90
28532;DHT22;15738;44.860;10.066;2023-03-21T05:52:45;8.40;99.90
28532;DHT22;15738;44.860;10.066;2023-03-21T05:55:32;8.70;99.90
28532;DHT22;15738;44.860;10.066;2023-03-21T05:58:17;9.00;99.90
28532;DHT22;15738;44.860;10.066;2023-03-21T06:01:07;9.10;99.90
28532;DHT22;15738;44.860;10.066;2023-03-21T06:03:55;9.30;99.90
28532;DHT22;15738;44.860;10.066;2023-03-21T06:06:44;9.80;99.90
28532;DHT22;15738;44.860;10.066;2023-03-21T06:09:30;10.30;99.90
28532;DHT22;15738;44.860;10.066;2023-03-21T06:12:20;10.80;99.90
28532;DHT22;15738;44.860;10.066;2023-03-21T06:15:22;11.40;99.90
28532;DHT22;15738;44.860;10.066;2023-03-21T06:18:12;12.00;99.90
28532;DHT22;15738;44.860;10.066;2023-03-21T06:21:08;12.50;99.90
28532;DHT22;15738;44.860;10.066;2023-03-21T06:23:56;12.90;99.90
28532;DHT22;15738;44.860;10.066;2023-03-21T06:26:42;13.30;99.90
28532;DHT22;15738;44.860;10.066;2023-03-21T06:29:28;13.60;99.90
28532;DHT22;15738;44.860;10.066;2023-03-21T06:32:14;13.90;99.90
28532;DHT22;15738;44.860;10.066;2023-03-21T06:35:02;14.30;99.90
28532;DHT22;15738;44.860;10.066;2023-03-21T06:37:49;14.60;99.90
28532;DHT22;15738;44.860;10.066;2023-03-21T06:40:36;14.80;99.90
28532;DHT22;15738;44.860;10.066;2023-03-21T06:43:22;14.90;99.90
28532;DHT22;15738;44.860;10.066;2023-03-21T06:46:09;14.70;99.90
28532;DHT22;15738;44.860;10.066;2023-03-21T06:48:55;14.40;99.90
28532;DHT22;15738;44.860;10.066;2023-03-21T06:51:40;14.20;99.90
28532;DHT22;15738;44.860;10.066;2023-03-21T06:54:32;14.00;99.90
28532;DHT22;15738;44.860;10.066;2023-03-21T06:57:25;14.10;99.90
28532;DHT22;15738;44.860;10.066;2023-03-21T07:00:10;14.20;99.90
28532;DHT22;15738;44.860;10.066;2023-03-21T07:03:02;14.40;99.90
28532;DHT22;15738;44.860;10.066;2023-03-21T07:05:48;14.50;99.90
28532;DHT22;15738;44.860;10.066;2023-03-21T07:08:34;14.70;99.90
28532;DHT22;15738;44.860;10.066;2023-03-21T07:11:20;14.80;99.90
28532;DHT22;15738;44.860;10.066;2023-03-21T07:14:07;14.90;99.90
28532;DHT22;15738;44.860;10.066;2023-03-21T07:16:52;15.00;99.90
28532;DHT22;15738;44.860;10.066;2023-03-21T07:19:38;15.10;99.90
28532;DHT22;15738;44.860;10.066;2023-03-21T07:22:24;15.20;99.90
28532;DHT22;15738;44.860;10.066;2023-03-21T07:25:11;15.20;99.90
28532;DHT22;15738;44.860;10.066;2023-03-21T07:27:57;15.20;99.90
28532;DHT22;15738;44.860;10.066;2023-03-21T07:30:43;15.30;99.90
28532;DHT22;15738;44.860;10.066;2023-03-21T07:33:29;15.30;99.90
28532;DHT22;15738;44.860;10.066;2023-03-21T07:36:17;15.40;99.90
28532;DHT22;15738;44.860;10.066;2023-03-21T07:39:03;15.50;99.90
28532;DHT22;15738;44.860;10.066;2023-03-21T07:41:49;15.70;99.90
28532;DHT22;15738;44.860;10.066;2023-03-21T07:44:46;15.90;99.90
28532;DHT22;15738;44.860;10.066;2023-03-21T07:47:32;15.90;99.90
28532;DHT22;15738;44.860;10.066;2023-03-21T07:50:18;16.00;99.90
28532;DHT22;15738;44.860;10.066;2023-03-21T07:53:03;16.10;99.90
28532;DHT22;15738;44.860;10.066;2023-03-21T07:55:50;16.30;99.90
28532;DHT22;15738;44.860;10.066;2023-03-21T07:58:35;16.40;99.90
28532;DHT22;15738;44.860;10.066;2023-03-21T08:01:21;16.40;99.90
28532;DHT22;15738;44.860;10.066;2023-03-21T08:04:07;16.50;99.90
28532;DHT22;15738;44.860;10.066;2023-03-21T08:06:53;16.60;99.90
28532;DHT22;15738;44.860;10.066;2023-03-21T08:09:39;16.80;99.90
28532;DHT22;15738;44.860;10.066;2023-03-21T08:12:25;16.90;99.90
28532;DHT22;15738;44.860;10.066;2023-03-21T08:15:11;17.00;99.90
28532;DHT22;15738;44.860;10.066;2023-03-21T08:17:58;17.20;99.90
28532;DHT22;15738;44.860;10.066;2023-03-21T08:20:44;17.30;99.90
28532;DHT22;15738;44.860;10.066;2023-03-21T08:23:30;17.40;99.90
28532;DHT22;15738;44.860;10.066;2023-03-21T08:26:16;17.40;99.90
28532;DHT22;15738;44.860;10.066;2023-03-21T08:29:14;17.30;99.90
28532;DHT22;15738;44.860;10.066;2023-03-21T08:32:00;17.40;99.90
28532;DHT22;15738;44.860;10.066;2023-03-21T08:34:45;17.70;99.90
28532;DHT22;15738;44.860;10.066;2023-03-21T08:37:31;17.80;99.90
28532;DHT22;15738;44.860;10.066;2023-03-21T08:40:18;17.90;99.90
28532;DHT22;15738;44.860;10.066;2023-03-21T08:43:04;17.90;99.90
28532;DHT22;15738;44.860;10.066;2023-03-21T08:45:51;17.90;99.90
28532;DHT22;15738;44.860;10.066;2023-03-21T08:48:37;18.00;99.90
28532;DHT22;15738;44.860;10.066;2023-03-21T08:51:23;18.10;99.90
28532;DHT22;15738;44.860;10.066;2023-03-21T08:54:14;18.30;99.90
28532;DHT22;15738;44.860;10.066;2023-03-21T08:57:01;18.50;99.90
28532;DHT22;15738;44.860;10.066;2023-03-21T08:59:46;18.40;99.90
28532;DHT22;15738;44.860;10.066;2023-03-21T09:02:32;18.40;99.90
28532;DHT22;15738;44.860;10.066;2023-03-21T09:05:19;18.50;99.90
28532;DHT22;15738;44.860;10.066;2023-03-21T09:08:04;18.40;99.90
28532;DHT22;15738;44.860;10.066;2023-03-21T09:10:54;18.30;99.90
28532;DHT22;15738;44.860;10.066;2023-03-21T09:13:40;18.60;99.90
28532;DHT22;15738;44.860;10.066;2023-03-21T09:16:25;18.80;99.90
28532;DHT22;15738;44.860;10.066;2023-03-21T09:19:11;18.80;99.90
28532;DHT22;15738;44.860;10.066;2023-03-21T09:21:57;18.30;99.90
28532;DHT22;15738;44.860;10.066;2023-03-21T09:24:43;18.30;99.90
28532;DHT22;15738;44.860;10.066;2023-03-21T09:27:32;18.40;99.90
28532;DHT22;15738;44.860;10.066;2023-03-21T09:30:18;18.40;99.90
28532;DHT22;15738;44.860;10.066;2023-03-21T09:33:06;18.40;99.90
28532;DHT22;15738;44.860;10.066;2023-03-21T09:35:53;18.40;99.90
28532;DHT22;15738;44.860;10.066;2023-03-21T09:38:40;18.20;99.90
28532;DHT22;15738;44.860;10.066;2023-03-21T09:47:29;18.10;99.90
28532;DHT22;15738;44.860;10.066;2023-03-21T09:53:48;17.70;99.90
28532;DHT22;15738;44.860;10.066;2023-03-21T09:56:15;17.80;99.90
28532;DHT22;15738;44.860;10.066;2023-03-21T09:59:01;17.80;99.90
28532;DHT22;15738;44.860;10.066;2023-03-21T10:01:48;17.90;99.90
28532;DHT22;15738;44.860;10.066;2023-03-21T10:04:34;17.90;99.90
28532;DHT22;15738;44.860;10.066;2023-03-21T10:07:22;18.10;99.90
28532;DHT22;15738;44.860;10.066;2023-03-21T10:10:12;18.20;99.90
28532;DHT22;15738;44.860;10.066;2023-03-21T10:13:00;18.20;99.90
28532;DHT22;15738;44.860;10.066;2023-03-21T10:15:46;18.40;99.90
28532;DHT22;15738;44.860;10.066;2023-03-21T10:18:32;18.40;99.90
28532;DHT22;15738;44.860;10.066;2023-03-21T10:21:22;18.50;99.90
28532;DHT22;15738;44.860;10.066;2023-03-21T10:24:29;18.50;99.90
28532;DHT22;15738;44.860;10.066;2023-03-21T10:27:16;18.50;99.90
28532;DHT22;15738;44.860;10.066;2023-03-21T10:30:03;18.60;99.90
28532;DHT22;15738;44.860;10.066;2023-03-21T10:32:51;18.20;99.90
28532;DHT22;15738;44.860;10.066;2023-03-21T10:35:38;18.20;99.90
28532;DHT22;15738;44.860;10.066;2023-03-21T10:38:26;18.20;99.90
28532;DHT22;15738;44.860;10.066;2023-03-21T10:41:12;18.20;99.90
28532;DHT22;15738;44.860;10.066;2023-03-21T10:44:15;18.10;99.90
28532;DHT22;15738;44.860;10.066;2023-03-21T10:47:07;18.00;99.90
28532;DHT22;15738;44.860;10.066;2023-03-21T10:49:53;17.90;99.90
28532;DHT22;15738;44.860;10.066;2023-03-21T10:52:55;17.80;99.90
28532;DHT22;15738;44.860;10.066;2023-03-21T10:55:45;17.90;99.90
28532;DHT22;15738;44.860;10.066;2023-03-21T10:58:34;18.00;99.90
28532;DHT22;15738;44.860;10.066;2023-03-21T11:01:23;18.20;99.90
28532;DHT22;15738;44.860;10.066;2023-03-21T11:04:14;18.40;99.90
28532;DHT22;15738;44.860;10.066;2023-03-21T11:07:02;18.40;99.90
28532;DHT22;15738;44.860;10.066;2023-03-21T11:09:56;18.50;99.90
28532;DHT22;15738;44.860;10.066;2023-03-21T11:12:45;18.40;99.90
28532;DHT22;15738;44.860;10.066;2023-03-21T11:18:22;18.40;99.90
28532;DHT22;15738;44.860;10.066;2023-03-21T11:21:09;18.50;99.90
28532;DHT22;15738;44.860;10.066;2023-03-21T11:23:55;18.40;99.90
28532;DHT22;15738;44.860;10.066;2023-03-21T11:26:42;18.40;99.90
28532;DHT22;15738;44.860;10.066;2023-03-21T11:29:31;18.30;99.90
28532;DHT22;15738;44.860;10.066;2023-03-21T11:32:22;18.40;99.90
28532;DHT22;15738;44.860;10.066;2023-03-21T11:35:14;18.40;99.90
28532;DHT22;15738;44.860;10.066;2023-03-21T11:38:03;18.20;99.90
28532;DHT22;15738;44.860;10.066;2023-03-21T11:40:55;18.30;99.90
28532;DHT22;15738;44.860;10.066;2023-03-21T11:43:41;18.40;99.90
28532;DHT22;15738;44.860;10.066;2023-03-21T11:46:38;18.30;99.90
28532;DHT22;15738;44.860;10.066;2023-03-21T11:49:26;18.40;99.90
28532;DHT22;15738;44.860;10.066;2023-03-21T11:58:19;18.40;99.90
28532;DHT22;15738;44.860;10.066;2023-03-21T12:06:54;18.70;99.90
28532;DHT22;15738;44.860;10.066;2023-03-21T12:22:05;18.60;99.90
28532;DHT22;15738;44.860;10.066;2023-03-21T12:24:22;18.60;99.90
28532;DHT22;15738;44.860;10.066;2023-03-21T12:27:10;18.80;99.90
28532;DHT22;15738;44.860;10.066;2023-03-21T12:30:15;19.00;99.90
28532;DHT22;15738;44.860;10.066;2023-03-21T12:33:13;18.90;99.90
28532;DHT22;15738;44.860;10.066;2023-03-21T12:39:28;18.70;99.90
28532;DHT22;15738;44.860;10.066;2023-03-21T12:48:18;18.90;99.90
28532;DHT22;15738;44.860;10.066;2023-03-21T12:51:07;19.00;99.90
28532;DHT22;15738;44.860;10.066;2023-03-21T12:53:56;19.00;99.90
28532;DHT22;15738;44.860;10.066;2023-03-21T12:59:33;19.00;99.90
28532;DHT22;15738;44.860;10.066;2023-03-21T13:02:22;19.00;99.90
28532;DHT22;15738;44.860;10.066;2023-03-21T13:11:04;19.00;99.90
28532;DHT22;15738;44.860;10.066;2023-03-21T13:16:52;19.00;99.90
28532;DHT22;15738;44.860;10.066;2023-03-21T13:19:47;19.10;99.90
28532;DHT22;15738;44.860;10.066;2023-03-21T13:22:35;19.20;99.90
28532;DHT22;15738;44.860;10.066;2023-03-21T13:25:22;19.00;99.90
28532;DHT22;15738;44.860;10.066;2023-03-21T13:28:15;19.00;99.90
28532;DHT22;15738;44.860;10.066;2023-03-21T13:31:17;19.00;99.90
28532;DHT22;15738;44.860;10.066;2023-03-21T13:34:06;18.90;99.90
28532;DHT22;15738;44.860;10.066;2023-03-21T13:36:57;18.90;99.90
28532;DHT22;15738;44.860;10.066;2023-03-21T13:39:46;19.00;99.90
28532;DHT22;15738;44.860;10.066;2023-03-21T13:42:32;19.00;99.90
28532;DHT22;15738;44.860;10.066;2023-03-21T13:45:22;19.20;99.90
28532;DHT22;15738;44.860;10.066;2023-03-21T13:48:29;19.00;99.90
28532;DHT22;15738;44.860;10.066;2023-03-21T13:51:15;19.00;99.90
28532;DHT22;15738;44.860;10.066;2023-03-21T13:56:54;19.00;99.90
28532;DHT22;15738;44.860;10.066;2023-03-21T13:59:44;19.00;99.90
28532;DHT22;15738;44.860;10.066;2023-03-21T14:02:33;19.10;99.90
28532;DHT22;15738;44.860;10.066;2023-03-21T14:05:20;19.10;99.90
28532;DHT22;15738;44.860;10.066;2023-03-21T14:08:07;19.00;99.90
28532;DHT22;15738;44.860;10.066;2023-03-21T14:11:14;19.00;99.90
28532;DHT22;15738;44.860;10.066;2023-03-21T14:14:01;19.00;99.90
28532;DHT22;15738;44.860;10.066;2023-03-21T14:16:47;19.10;99.90
28532;DHT22;15738;44.860;10.066;2023-03-21T14:19:34;19.20;99.90
28532;DHT22;15738;44.860;10.066;2023-03-21T14:22:20;19.20;99.90
28532;DHT22;15738;44.860;10.066;2023-03-21T14:25:07;19.20;99.90
28532;DHT22;15738;44.860;10.066;2023-03-21T14:27:55;19.10;99.90
28532;DHT22;15738;44.860;10.066;2023-03-21T14:30:43;19.10;99.90
28532;DHT22;15738;44.860;10.066;2023-03-21T14:33:35;19.00;99.90
28532;DHT22;15738;44.860;10.066;2023-03-21T14:36:29;19.00;99.90
28532;DHT22;15738;44.860;10.066;2023-03-21T14:39:21;19.00;99.90
28532;DHT22;15738;44.860;10.066;2023-03-21T14:42:10;19.00;99.90
28532;DHT22;15738;44.860;10.066;2023-03-21T14:44:56;19.10;99.90
28532;DHT22;15738;44.860;10.066;2023-03-21T14:47:58;19.10;99.90
28532;DHT22;15738;44.860;10.066;2023-03-21T14:50:49;19.10;99.90
28532;DHT22;15738;44.860;10.066;2023-03-21T14:53:36;19.10;99.90
28532;DHT22;15738;44.860;10.066;2023-03-21T14:56:22;19.20;99.90
28532;DHT22;15738;44.860;10.066;2023-03-21T14:59:10;19.10;99.90
28532;DHT22;15738;44.860;10.066;2023-03-21T15:01:58;19.00;99.90
28532;DHT22;15738;44.860;10.066;2023-03-21T15:04:45;19.10;99.90
28532;DHT22;15738;44.860;10.066;2023-03-21T15:07:33;19.10;99.90
28532;DHT22;15738;44.860;10.066;2023-03-21T15:10:20;19.10;99.90
28532;DHT22;15738;44.860;10.066;2023-03-21T15:13:17;19.10;99.90
28532;DHT22;15738;44.860;10.066;2023-03-21T15:16:03;19.10;99.90
28532;DHT22;15738;44.860;10.066;2023-03-21T15:18:49;18.90;99.90
28532;DHT22;15738;44.860;10.066;2023-03-21T15:21:40;18.90;99.90
28532;DHT22;15738;44.860;10.066;2023-03-21T15:24:28;19.00;99.90
28532;DHT22;15738;44.860;10.066;2023-03-21T15:27:15;19.10;99.90
28532;DHT22;15738;44.860;10.066;2023-03-21T15:30:03;19.10;99.90
28532;DHT22;15738;44.860;10.066;2023-03-21T15:32:48;19.10;99.90
28532;DHT22;15738;44.860;10.066;2023-03-21T15:35:36;19.10;99.90
28532;DHT22;15738;44.860;10.066;2023-03-21T15:38:31;19.00;99.90
28532;DHT22;15738;44.860;10.066;2023-03-21T15:44:05;19.00;99.90
28532;DHT22;15738;44.860;10.066;2023-03-21T15:46:55;19.00;99.90
28532;DHT22;15738;44.860;10.066;2023-03-21T15:49:41;19.00;99.90
28532;DHT22;15738;44.860;10.066;2023-03-21T15:52:27;19.00;99.90
28532;DHT22;15738;44.860;10.066;2023-03-21T15:55:20;18.90;99.90
28532;DHT22;15738;44.860;10.066;2023-03-21T15:58:17;18.90;99.90
28532;DHT22;15738;44.860;10.066;2023-03-21T16:01:05;18.90;99.90
28532;DHT22;15738;44.860;10.066;2023-03-21T16:03:55;18.90;99.90
28532;DHT22;15738;44.860;10.066;2023-03-21T16:10:01;18.80;99.90
28532;DHT22;15738;44.860;10.066;2023-03-21T16:12:49;18.70;99.90
28532;DHT22;15738;44.860;10.066;2023-03-21T16:15:34;18.70;99.90
28532;DHT22;15738;44.860;10.066;2023-03-21T16:18:20;18.70;99.90
28532;DHT22;15738;44.860;10.066;2023-03-21T16:21:08;18.60;99.90
28532;DHT22;15738;44.860;10.066;2023-03-21T16:23:54;18.60;99.90
28532;DHT22;15738;44.860;10.066;2023-03-21T16:26:44;18.50;99.90
28532;DHT22;15738;44.860;10.066;2023-03-21T16:29:32;18.50;99.90
28532;DHT22;15738;44.860;10.066;2023-03-21T16:32:17;18.40;99.90
28532;DHT22;15738;44.860;10.066;2023-03-21T16:35:05;18.40;99.90
28532;DHT22;15738;44.860;10.066;2023-03-21T16:37:51;18.40;99.90
28532;DHT22;15738;44.860;10.066;2023-03-21T16:40:38;18.30;99.90
28532;DHT22;15738;44.860;10.066;2023-03-21T16:43:25;18.30;99.90
28532;DHT22;15738;44.860;10.066;2023-03-21T16:46:18;18.20;99.90
28532;DHT22;15738;44.860;10.066;2023-03-21T16:49:04;18.20;99.90
28532;DHT22;15738;44.860;10.066;2023-03-21T16:51:50;18.20;99.90
28532;DHT22;15738;44.860;10.066;2023-03-21T16:54:37;18.10;99.90
28532;DHT22;15738;44.860;10.066;2023-03-21T16:57:23;18.10;99.90
28532;DHT22;15738;44.860;10.066;2023-03-21T17:00:13;18.00;99.90
28532;DHT22;15738;44.860;10.066;2023-03-21T17:03:01;18.00;99.90
28532;DHT22;15738;44.860;10.066;2023-03-21T17:05:52;18.00;99.90
28532;DHT22;15738;44.860;10.066;2023-03-21T17:08:38;18.00;99.90
28532;DHT22;15738;44.860;10.066;2023-03-21T17:11:25;17.90;99.90
28532;DHT22;15738;44.860;10.066;2023-03-21T17:14:11;17.90;99.90
28532;DHT22;15738;44.860;10.066;2023-03-21T17:16:57;17.80;99.90
28532;DHT22;15738;44.860;10.066;2023-03-21T17:19:43;17.70;99.90
28532;DHT22;15738;44.860;10.066;2023-03-21T17:22:29;17.70;99.90
28532;DHT22;15738;44.860;10.066;2023-03-21T17:25:14;17.60;99.90
28532;DHT22;15738;44.860;10.066;2023-03-21T17:28:00;17.60;99.90
28532;DHT22;15738;44.860;10.066;2023-03-21T17:30:46;17.50;99.90
28532;DHT22;15738;44.860;10.066;2023-03-21T17:33:32;17.50;99.90
28532;DHT22;15738;44.860;10.066;2023-03-21T17:36:22;17.40;99.90
28532;DHT22;15738;44.860;10.066;2023-03-21T17:39:14;17.30;99.90
28532;DHT22;15738;44.860;10.066;2023-03-21T17:42:01;17.20;99.90
28532;DHT22;15738;44.860;10.066;2023-03-21T17:44:46;17.20;99.90
28532;DHT22;15738;44.860;10.066;2023-03-21T17:47:32;17.20;99.90
28532;DHT22;15738;44.860;10.066;2023-03-21T17:50:26;17.10;99.90
28532;DHT22;15738;44.860;10.066;2023-03-21T17:53:12;17.10;99.90
28532;DHT22;15738;44.860;10.066;2023-03-21T17:55:59;17.00;99.90
28532;DHT22;15738;44.860;10.066;2023-03-21T17:58:45;16.90;99.90
28532;DHT22;15738;44.860;10.066;2023-03-21T18:01:31;16.90;99.90
28532;DHT22;15738;44.860;10.066;2023-03-21T18:04:17;16.80;99.90
28532;DHT22;15738;44.860;10.066;2023-03-21T18:07:04;16.70;99.90
28532;DHT22;15738;44.860;10.066;2023-03-21T18:09:57;16.70;99.90
28532;DHT22;15738;44.860;10.066;2023-03-21T18:12:43;16.60;99.90
28532;DHT22;15738;44.860;10.066;2023-03-21T18:15:31;16.50;99.90
28532;DHT22;15738;44.860;10.066;2023-03-21T18:18:17;16.40;99.90
28532;DHT22;15738;44.860;10.066;2023-03-21T18:21:02;16.40;99.90
28532;DHT22;15738;44.860;10.066;2023-03-21T18:23:48;16.20;99.90
28532;DHT22;15738;44.860;10.066;2023-03-21T18:26:34;16.20;99.90
28532;DHT22;15738;44.860;10.066;2023-03-21T18:29:20;16.20;99.90
28532;DHT22;15738;44.860;10.066;2023-03-21T18:32:26;16.90;99.90
28532;DHT22;15738;44.860;10.066;2023-03-21T18:35:12;16.10;99.90
28532;DHT22;15738;44.860;10.066;2023-03-21T18:37:59;16.00;99.90
28532;DHT22;15738;44.860;10.066;2023-03-21T18:40:47;16.00;99.90
28532;DHT22;15738;44.860;10.066;2023-03-21T18:43:33;15.90;99.90
28532;DHT22;15738;44.860;10.066;2023-03-21T18:46:39;15.90;99.90
28532;DHT22;15738;44.860;10.066;2023-03-21T18:49:31;15.80;99.90
28532;DHT22;15738;44.860;10.066;2023-03-21T18:52:36;15.80;99.90
28532;DHT22;15738;44.860;10.066;2023-03-21T18:55:22;15.70;99.90
28532;DHT22;15738;44.860;10.066;2023-03-21T18:58:28;15.70;99.90
28532;DHT22;15738;44.860;10.066;2023-03-21T19:01:14;15.60;99.90
28532;DHT22;15738;44.860;10.066;2023-03-21T19:04:00;15.60;99.90
28532;DHT22;15738;44.860;10.066;2023-03-21T19:07:05;15.60;99.90
28532;DHT22;15738;44.860;10.066;2023-03-21T19:09:52;15.50;99.90